Mount Pleasant, Canada
Current Conditions -  °F | °C
As of 11:00 PM on Friday 28 Nov 2014 (Local Time) from CYGK Reporting Station
Overcast Overcast  
Wind Chill: 16°   Ceiling: 12000
Heat Index: 23°   Visibility: 15mi
Dew Point: 14°   Wind: 6mph
Humidity: 68%   Direction: 320°NW
Pressure: 30.2"   Gusts: NA
Location:  44.23°N, 77.03°W
Report Text: CYGK 290400Z 32005KT 15SM FEW050 OVC120 M05/M10 A3020 RMK SC2AC6 LAST STFD OBS/NEXT 291100 UTC SLP233
Loading
Personal Weather Stations






























Interactive Weather Map New forecast layout! Learn more

10-Day Weather Forecast

Advertisements
Track Severe Weather on mobile